createdAt,value
2018-11-04T00:01:56.280Z,99.60
2018-11-04T00:04:24.422Z,99.25
2018-11-04T00:06:52.565Z,99.45
2018-11-04T00:09:20.709Z,99.68
2018-11-04T00:11:48.823Z,99.02
2018-11-04T00:14:16.965Z,98.82
2018-11-04T00:16:45.105Z,99.32
2018-11-04T00:19:13.250Z,98.75
2018-11-04T00:21:41.389Z,99.13
2018-11-04T00:24:09.665Z,98.98
2018-11-04T00:26:37.677Z,99.14
2018-11-04T00:29:05.844Z,99.17
2018-11-04T00:31:33.981Z,99.70
2018-11-04T00:34:02.085Z,99.45
2018-11-04T00:36:30.258Z,99.62
2018-11-04T00:38:58.421Z,100.00
2018-11-04T00:41:26.537Z,100.00
2018-11-04T00:48:53.790Z,100.00
2018-11-04T00:51:21.900Z,100.00
2018-11-04T00:53:50.073Z,100.00
2018-11-04T00:56:18.204Z,100.00
2018-11-04T00:58:46.325Z,100.00
2018-11-04T01:01:14.430Z,100.00
2018-11-04T01:03:43.259Z,100.00
2018-11-04T01:06:11.365Z,100.00
2018-11-04T01:08:39.501Z,100.00
2018-11-04T01:11:07.648Z,100.00
2018-11-04T01:13:35.765Z,100.00
2018-11-04T01:16:03.889Z,100.00
2018-11-04T01:18:32.022Z,100.00
2018-11-04T01:21:00.179Z,100.00
2018-11-04T01:23:28.307Z,100.00
2018-11-04T01:25:56.436Z,100.00
2018-11-04T01:28:24.613Z,100.00
2018-11-04T01:30:52.758Z,100.00
2018-11-04T01:33:20.914Z,100.00
2018-11-04T01:35:49.059Z,100.00
2018-11-04T01:38:17.201Z,100.00
2018-11-04T01:40:45.351Z,100.00
2018-11-04T01:43:13.474Z,100.00
2018-11-04T01:45:41.607Z,100.00
2018-11-04T01:48:09.741Z,100.00
2018-11-04T01:50:37.894Z,100.00
2018-11-04T01:53:06.018Z,100.00
2018-11-04T01:55:34.169Z,100.00
2018-11-04T01:58:02.330Z,100.00
2018-11-04T02:00:30.460Z,100.00
2018-11-04T02:02:58.597Z,100.00
2018-11-04T02:05:26.727Z,100.00
2018-11-04T02:07:54.866Z,100.00
2018-11-04T02:10:23.032Z,100.00
2018-11-04T02:12:51.188Z,100.00
2018-11-04T02:15:19.328Z,100.00
2018-11-04T02:17:47.458Z,100.00
2018-11-04T02:20:15.567Z,100.00
2018-11-04T02:22:43.741Z,100.00
2018-11-04T02:25:13.247Z,100.00
2018-11-04T02:27:42.150Z,100.00
2018-11-04T02:30:12.927Z,100.00
2018-11-04T02:32:41.372Z,100.00
2018-11-04T02:35:09.622Z,100.00
2018-11-04T02:37:37.772Z,100.00
2018-11-04T02:40:05.954Z,100.00
2018-11-04T02:42:34.141Z,100.00
2018-11-04T02:45:02.273Z,100.00
2018-11-04T02:47:30.421Z,100.00
2018-11-04T02:49:58.586Z,100.00
2018-11-04T02:52:26.729Z,100.00
2018-11-04T02:54:54.848Z,100.00
2018-11-04T02:57:23.005Z,100.00
2018-11-04T02:59:51.125Z,100.00
2018-11-04T03:02:19.269Z,100.00
2018-11-04T03:04:47.429Z,100.00
2018-11-04T03:07:15.529Z,100.00
2018-11-04T03:09:43.683Z,100.00
2018-11-04T03:12:11.805Z,100.00
2018-11-04T03:14:39.937Z,100.00
2018-11-04T03:17:08.114Z,100.00
2018-11-04T03:19:36.277Z,100.00
2018-11-04T03:22:04.863Z,100.00
2018-11-04T03:24:33.144Z,100.00
2018-11-04T03:27:01.158Z,100.00
2018-11-04T03:29:29.317Z,100.00
2018-11-04T03:31:57.473Z,100.00
2018-11-04T03:34:25.627Z,100.00
2018-11-04T03:36:53.773Z,100.00
2018-11-04T03:39:21.930Z,100.00
2018-11-04T03:41:50.070Z,100.00
2018-11-04T03:44:18.220Z,100.00
2018-11-04T03:46:46.369Z,100.00
2018-11-04T03:49:14.860Z,100.00
2018-11-04T03:51:42.986Z,100.00
2018-11-04T03:54:11.125Z,100.00
2018-11-04T03:56:39.298Z,100.00
2018-11-04T03:59:07.499Z,100.00
2018-11-04T04:01:35.653Z,100.00
2018-11-04T04:04:03.797Z,100.00
2018-11-04T04:06:31.950Z,100.00
2018-11-04T04:09:00.100Z,100.00
2018-11-04T04:11:28.256Z,100.00
2018-11-04T04:13:56.389Z,100.00
2018-11-04T04:16:24.549Z,100.00
2018-11-04T04:18:52.722Z,100.00
2018-11-04T04:21:21.597Z,100.00
2018-11-04T04:23:49.717Z,100.00
2018-11-04T04:26:17.861Z,100.00
2018-11-04T04:28:45.985Z,100.00
2018-11-04T04:31:14.113Z,100.00
2018-11-04T04:33:42.508Z,100.00
2018-11-04T04:36:10.599Z,100.00
2018-11-04T04:38:38.745Z,100.00
2018-11-04T04:41:07.013Z,100.00
2018-11-04T04:43:35.197Z,100.00
2018-11-04T04:46:03.331Z,100.00
2018-11-04T04:48:31.469Z,100.00
2018-11-04T04:50:59.602Z,100.00
2018-11-04T04:53:27.724Z,100.00
2018-11-04T04:55:57.153Z,100.00
2018-11-04T04:58:25.330Z,100.00
2018-11-04T05:00:54.067Z,100.00
2018-11-04T05:03:22.564Z,100.00
2018-11-04T05:05:50.709Z,100.00
2018-11-04T05:08:18.825Z,100.00
2018-11-04T05:10:46.925Z,100.00
2018-11-04T05:13:15.064Z,100.00
2018-11-04T05:15:43.211Z,100.00
2018-11-04T05:18:11.347Z,100.00
2018-11-04T05:20:39.458Z,100.00
2018-11-04T05:23:07.585Z,100.00
2018-11-04T05:25:35.766Z,100.00
2018-11-04T05:28:03.906Z,100.00
2018-11-04T05:30:32.060Z,100.00
2018-11-04T05:33:00.183Z,100.00
2018-11-04T05:35:28.332Z,100.00
2018-11-04T05:37:56.498Z,100.00
2018-11-04T05:40:24.634Z,100.00
2018-11-04T05:42:52.772Z,100.00
2018-11-04T05:45:20.937Z,100.00
2018-11-04T05:47:49.066Z,100.00
2018-11-04T05:50:17.221Z,100.00
2018-11-04T05:52:45.372Z,100.00
2018-11-04T05:55:13.509Z,100.00
2018-11-04T05:57:41.689Z,100.00
2018-11-04T06:00:10.473Z,100.00
2018-11-04T06:02:38.653Z,100.00
2018-11-04T06:05:07.760Z,100.00
2018-11-04T06:07:35.896Z,100.00
2018-11-04T06:10:04.070Z,100.00
2018-11-04T06:12:32.230Z,100.00
2018-11-04T06:15:00.353Z,100.00
2018-11-04T06:17:28.508Z,100.00
2018-11-04T06:19:56.676Z,100.00
2018-11-04T06:22:24.901Z,100.00
2018-11-04T06:24:53.045Z,100.00
2018-11-04T06:27:21.141Z,100.00
2018-11-04T06:29:49.284Z,100.00
2018-11-04T06:32:17.425Z,100.00
2018-11-04T06:34:45.690Z,100.00
2018-11-04T06:37:13.685Z,100.00
2018-11-04T06:39:41.874Z,100.00
2018-11-04T06:42:10.003Z,100.00
2018-11-04T06:44:38.193Z,100.00
2018-11-04T06:47:07.335Z,100.00
2018-11-04T06:49:35.470Z,100.00
2018-11-04T06:52:03.573Z,100.00
2018-11-04T06:54:31.701Z,100.00
2018-11-04T06:56:59.845Z,100.00
2018-11-04T06:59:28.004Z,100.00
2018-11-04T07:01:56.133Z,100.00
2018-11-04T07:04:25.596Z,100.00
2018-11-04T07:06:53.728Z,100.00
2018-11-04T07:09:21.917Z,100.00
2018-11-04T07:11:50.424Z,100.00
2018-11-04T07:14:19.133Z,100.00
2018-11-04T07:16:47.274Z,100.00
2018-11-04T07:19:15.895Z,100.00
2018-11-04T07:21:44.046Z,100.00
2018-11-04T07:24:12.233Z,100.00
2018-11-04T07:26:40.399Z,100.00
2018-11-04T07:29:09.437Z,100.00
2018-11-04T07:31:37.576Z,100.00
2018-11-04T07:34:06.141Z,100.00
2018-11-04T07:36:34.489Z,100.00
2018-11-04T07:39:02.618Z,100.00
2018-11-04T07:41:30.794Z,100.00
2018-11-04T07:43:58.934Z,100.00
2018-11-04T07:46:27.073Z,100.00
2018-11-04T07:48:55.255Z,100.00
2018-11-04T07:51:23.405Z,100.00
2018-11-04T07:53:51.587Z,100.00
2018-11-04T07:56:19.685Z,100.00
2018-11-04T07:58:47.832Z,100.00
2018-11-04T08:01:15.996Z,100.00
2018-11-04T08:03:44.136Z,100.00
2018-11-04T08:06:12.289Z,100.00
2018-11-04T08:08:40.416Z,100.00
2018-11-04T08:11:08.558Z,100.00
2018-11-04T08:13:36.752Z,100.00
2018-11-04T08:16:05.079Z,100.00
2018-11-04T08:18:33.228Z,100.00
2018-11-04T08:21:01.365Z,100.00
2018-11-04T08:23:29.497Z,100.00
2018-11-04T08:25:57.613Z,100.00
2018-11-04T08:28:25.754Z,100.00
2018-11-04T08:30:53.888Z,100.00
2018-11-04T08:33:22.026Z,100.00
2018-11-04T08:35:50.203Z,100.00
2018-11-04T08:38:18.317Z,100.00
2018-11-04T08:40:46.550Z,100.00
2018-11-04T08:43:14.678Z,100.00
2018-11-04T08:45:42.859Z,100.00
2018-11-04T08:48:10.951Z,100.00
2018-11-04T08:50:39.077Z,100.00
2018-11-04T08:53:07.269Z,100.00
2018-11-04T08:55:35.371Z,100.00
2018-11-04T08:58:03.519Z,100.00
2018-11-04T09:00:31.638Z,100.00
2018-11-04T09:02:59.781Z,100.00
2018-11-04T09:05:27.899Z,100.00
2018-11-04T09:07:56.049Z,100.00
2018-11-04T09:10:24.178Z,100.00
2018-11-04T09:12:52.312Z,100.00
2018-11-04T09:15:20.422Z,100.00
2018-11-04T09:17:48.600Z,100.00
2018-11-04T09:20:17.413Z,100.00
2018-11-04T09:22:45.581Z,100.00
2018-11-04T09:25:14.061Z,100.00
2018-11-04T09:27:42.217Z,100.00
2018-11-04T09:30:12.883Z,100.00
2018-11-04T09:32:41.037Z,100.00
2018-11-04T09:35:10.152Z,100.00
2018-11-04T09:37:37.977Z,100.00
2018-11-04T09:40:07.438Z,100.00
2018-11-04T09:42:35.629Z,100.00
2018-11-04T09:45:03.778Z,100.00
2018-11-04T09:47:31.994Z,100.00
2018-11-04T09:50:00.228Z,100.00
2018-11-04T09:52:28.321Z,100.00
2018-11-04T09:54:56.433Z,100.00
2018-11-04T09:57:24.613Z,100.00
2018-11-04T09:59:52.781Z,100.00
2018-11-04T10:02:20.921Z,100.00
2018-11-04T10:04:49.070Z,100.00
2018-11-04T10:07:17.289Z,100.00
2018-11-04T10:09:45.424Z,100.00
2018-11-04T10:12:13.565Z,100.00
2018-11-04T10:14:41.714Z,100.00
2018-11-04T10:17:09.842Z,100.00
2018-11-04T10:19:38.070Z,100.00
2018-11-04T10:22:06.160Z,100.00
2018-11-04T10:24:34.283Z,100.00
2018-11-04T10:27:02.418Z,100.00
2018-11-04T10:29:30.533Z,100.00
2018-11-04T10:31:58.672Z,100.00
2018-11-04T10:34:26.829Z,100.00
2018-11-04T10:36:54.979Z,100.00
2018-11-04T10:39:23.097Z,100.00
2018-11-04T10:41:51.231Z,100.00
2018-11-04T10:44:19.376Z,100.00
2018-11-04T10:46:47.526Z,100.00
2018-11-04T10:49:15.673Z,100.00
2018-11-04T10:51:43.798Z,100.00
2018-11-04T10:54:11.965Z,100.00
2018-11-04T10:56:40.110Z,100.00
2018-11-04T10:59:08.276Z,100.00
2018-11-04T11:01:36.471Z,100.00
2018-11-04T11:04:04.741Z,100.00
2018-11-04T11:06:32.879Z,100.00
2018-11-04T11:09:01.058Z,100.00
2018-11-04T11:11:29.241Z,100.00
2018-11-04T11:13:57.384Z,100.00
2018-11-04T11:16:25.530Z,100.00
2018-11-04T11:18:53.675Z,100.00
2018-11-04T11:21:21.811Z,100.00
2018-11-04T11:23:49.941Z,100.00
2018-11-04T11:26:18.127Z,100.00
2018-11-04T11:28:46.263Z,100.00
2018-11-04T11:31:14.401Z,100.00
2018-11-04T11:33:42.781Z,100.00
2018-11-04T11:36:10.909Z,100.00
2018-11-04T11:38:39.078Z,100.00
2018-11-04T11:41:07.195Z,100.00
2018-11-04T11:43:35.341Z,100.00
2018-11-04T11:46:03.480Z,100.00
2018-11-04T11:48:31.640Z,100.00
2018-11-04T11:50:59.737Z,100.00
2018-11-04T11:53:27.885Z,100.00
2018-11-04T11:55:56.042Z,100.00
2018-11-04T11:58:24.198Z,100.00
2018-11-04T12:00:52.582Z,100.00
2018-11-04T12:03:20.715Z,100.00
2018-11-04T12:05:48.847Z,100.00
2018-11-04T12:08:16.993Z,100.00
2018-11-04T12:10:45.161Z,100.00
2018-11-04T12:13:13.318Z,100.00
2018-11-04T12:15:41.483Z,100.00
2018-11-04T12:18:09.669Z,100.00
2018-11-04T12:20:38.007Z,100.00
2018-11-04T12:23:06.147Z,100.00
2018-11-04T12:25:34.364Z,100.00
2018-11-04T12:28:02.565Z,100.00
2018-11-04T12:30:30.733Z,100.00
2018-11-04T12:32:58.877Z,100.00
2018-11-04T12:35:27.228Z,100.00
2018-11-04T12:37:55.227Z,100.00
2018-11-04T12:40:23.393Z,100.00
2018-11-04T12:42:51.574Z,100.00
2018-11-04T12:45:19.716Z,100.00
2018-11-04T12:47:47.885Z,100.00
2018-11-04T12:50:16.056Z,100.00
2018-11-04T12:52:44.240Z,100.00
2018-11-04T12:55:12.420Z,100.00
2018-11-04T12:57:40.660Z,100.00
2018-11-04T13:00:11.435Z,100.00
2018-11-04T13:02:39.728Z,100.00
2018-11-04T13:05:08.904Z,100.00
2018-11-04T13:07:37.073Z,100.00
2018-11-04T13:10:06.795Z,100.00
2018-11-04T13:12:34.962Z,100.00
2018-11-04T13:15:03.122Z,100.00
2018-11-04T13:17:31.349Z,100.00
2018-11-04T13:19:59.520Z,100.00
2018-11-04T13:22:27.889Z,100.00
2018-11-04T13:24:56.065Z,100.00
2018-11-04T13:27:24.219Z,100.00
2018-11-04T13:29:52.429Z,100.00
2018-11-04T13:32:20.575Z,100.00
2018-11-04T13:34:48.784Z,100.00
2018-11-04T13:37:16.933Z,100.00
2018-11-04T13:39:45.098Z,100.00
2018-11-04T13:42:13.274Z,100.00
2018-11-04T13:44:41.371Z,100.00
2018-11-04T13:47:09.510Z,100.00
2018-11-04T13:49:37.617Z,100.00
2018-11-04T13:52:05.765Z,100.00
2018-11-04T13:54:34.106Z,100.00
2018-11-04T13:57:02.284Z,100.00
2018-11-04T13:59:30.446Z,100.00
2018-11-04T14:01:58.590Z,100.00
2018-11-04T14:04:26.734Z,100.00
2018-11-04T14:06:54.902Z,100.00
2018-11-04T14:09:23.064Z,100.00
2018-11-04T14:11:51.191Z,100.00
2018-11-04T14:14:19.339Z,100.00
2018-11-04T14:16:47.486Z,100.00
2018-11-04T14:19:15.649Z,100.00
2018-11-04T14:21:43.858Z,100.00
2018-11-04T14:24:12.024Z,100.00
2018-11-04T14:26:40.193Z,100.00
2018-11-04T14:29:08.345Z,100.00
2018-11-04T14:31:36.547Z,100.00
2018-11-04T14:34:04.842Z,100.00
2018-11-04T14:36:33.019Z,100.00
2018-11-04T14:39:01.225Z,100.00
2018-11-04T14:41:29.448Z,100.00
2018-11-04T14:43:57.622Z,100.00
2018-11-04T14:46:25.790Z,100.00
2018-11-04T14:48:53.961Z,100.00
2018-11-04T14:51:22.097Z,100.00
2018-11-04T14:53:51.424Z,100.00
2018-11-04T14:56:22.770Z,100.00
2018-11-04T14:58:51.065Z,100.00
2018-11-04T15:01:19.401Z,100.00
2018-11-04T15:03:47.530Z,100.00
2018-11-04T15:06:15.745Z,100.00
2018-11-04T15:08:43.976Z,100.00
2018-11-04T15:11:12.133Z,100.00
2018-11-04T15:13:41.465Z,100.00
2018-11-04T15:16:09.617Z,100.00
2018-11-04T15:18:37.956Z,100.00
2018-11-04T15:21:06.103Z,100.00
2018-11-04T15:23:34.230Z,100.00
2018-11-04T15:26:02.456Z,100.00
2018-11-04T15:28:30.606Z,100.00
2018-11-04T15:30:58.797Z,100.00
2018-11-04T15:33:26.995Z,100.00
2018-11-04T15:35:55.102Z,100.00
2018-11-04T15:38:23.320Z,100.00
2018-11-04T15:40:51.468Z,100.00
2018-11-04T15:43:19.717Z,100.00
2018-11-04T15:45:47.922Z,100.00
2018-11-04T15:53:15.961Z,100.00
2018-11-04T15:55:44.200Z,100.00
2018-11-04T15:58:12.418Z,100.00
2018-11-04T16:00:40.590Z,100.00
2018-11-04T16:03:08.729Z,100.00
2018-11-04T16:05:36.989Z,100.00
2018-11-04T16:08:05.967Z,100.00
2018-11-04T16:10:34.231Z,100.00
2018-11-04T16:13:02.473Z,100.00
2018-11-04T16:15:30.725Z,100.00
2018-11-04T16:17:58.939Z,100.00
2018-11-04T16:20:27.059Z,100.00
2018-11-04T16:22:55.259Z,100.00
2018-11-04T16:25:23.454Z,100.00
2018-11-04T16:27:51.653Z,100.00
2018-11-04T16:30:19.885Z,100.00
2018-11-04T16:32:48.290Z,100.00
2018-11-04T16:35:16.452Z,100.00
2018-11-04T16:37:45.390Z,100.00
2018-11-04T16:40:13.482Z,100.00
2018-11-04T16:42:41.617Z,100.00
2018-11-04T16:45:12.343Z,100.00
2018-11-04T16:47:40.790Z,100.00
2018-11-04T16:50:09.894Z,100.00
2018-11-04T16:52:38.030Z,100.00
2018-11-04T16:55:06.939Z,100.00
2018-11-04T16:57:35.093Z,100.00
2018-11-04T17:00:03.237Z,100.00
2018-11-04T17:02:31.485Z,100.00
2018-11-04T17:04:59.826Z,100.00
2018-11-04T17:07:28.062Z,100.00
2018-11-04T17:09:56.359Z,100.00
2018-11-04T17:12:24.541Z,100.00
2018-11-04T17:14:52.791Z,100.00
2018-11-04T17:17:21.110Z,100.00
2018-11-04T17:19:49.306Z,100.00
2018-11-04T17:22:17.519Z,100.00
2018-11-04T17:24:45.674Z,100.00
2018-11-04T17:27:13.841Z,100.00
2018-11-04T17:29:42.119Z,100.00
2018-11-04T17:32:10.326Z,100.00
2018-11-04T17:34:38.562Z,100.00
2018-11-04T17:37:07.985Z,100.00
2018-11-04T17:39:36.274Z,100.00
2018-11-04T17:42:04.743Z,100.00
2018-11-04T17:44:33.077Z,100.00
2018-11-04T17:47:01.200Z,100.00
2018-11-04T17:49:29.353Z,100.00
2018-11-04T17:51:57.513Z,100.00
2018-11-04T17:54:25.690Z,100.00
2018-11-04T17:56:54.041Z,100.00
2018-11-04T17:59:22.205Z,100.00
2018-11-04T18:01:50.366Z,100.00
2018-11-04T18:04:18.510Z,100.00
2018-11-04T18:06:46.689Z,100.00
2018-11-04T18:09:14.837Z,100.00
2018-11-04T18:11:43.017Z,100.00
2018-11-04T18:14:11.183Z,100.00
2018-11-04T18:16:39.405Z,100.00
2018-11-04T18:19:07.587Z,100.00
2018-11-04T18:21:35.928Z,100.00
2018-11-04T18:24:04.126Z,100.00
2018-11-04T18:26:32.309Z,100.00
2018-11-04T18:29:00.399Z,100.00
2018-11-04T18:31:28.558Z,100.00
2018-11-04T18:38:56.675Z,100.00
2018-11-04T18:41:24.848Z,100.00
2018-11-04T18:43:54.421Z,100.00
2018-11-04T18:46:22.309Z,100.00
2018-11-04T18:48:50.462Z,100.00
2018-11-04T18:51:18.581Z,100.00
2018-11-04T18:53:46.769Z,100.00
2018-11-04T18:56:15.063Z,100.00
2018-11-04T18:58:43.182Z,100.00
2018-11-04T19:01:11.313Z,100.00
2018-11-04T19:03:40.337Z,100.00
2018-11-04T19:06:08.502Z,100.00
2018-11-04T19:08:36.613Z,100.00
2018-11-04T19:11:05.105Z,100.00
2018-11-04T19:13:33.252Z,100.00
2018-11-04T19:16:01.401Z,100.00
2018-11-04T19:18:29.590Z,100.00
2018-11-04T19:20:57.749Z,100.00
2018-11-04T19:23:26.336Z,100.00
2018-11-04T19:25:54.510Z,100.00
2018-11-04T19:28:23.366Z,100.00
2018-11-04T19:30:51.616Z,100.00
2018-11-04T19:33:19.855Z,100.00
2018-11-04T19:35:47.997Z,100.00
2018-11-04T19:38:16.123Z,100.00
2018-11-04T19:40:44.313Z,100.00
2018-11-04T19:43:12.565Z,100.00
2018-11-04T19:45:40.596Z,100.00
2018-11-04T19:48:08.749Z,100.00
2018-11-04T19:50:36.870Z,100.00
2018-11-04T19:53:05.043Z,100.00
2018-11-04T19:55:33.152Z,100.00
2018-11-04T19:58:01.300Z,100.00
2018-11-04T20:00:29.500Z,100.00
2018-11-04T20:02:57.689Z,100.00
2018-11-04T20:05:25.887Z,100.00
2018-11-04T20:07:53.957Z,100.00
2018-11-04T20:10:22.121Z,100.00
2018-11-04T20:12:55.657Z,100.00
2018-11-04T20:15:23.817Z,100.00
2018-11-04T20:17:51.971Z,100.00
2018-11-04T20:20:24.597Z,100.00
2018-11-04T20:22:52.713Z,100.00
2018-11-04T20:25:26.354Z,100.00
2018-11-04T20:27:54.459Z,100.00
2018-11-04T20:30:22.587Z,100.00
2018-11-04T20:32:56.049Z,100.00
2018-11-04T20:35:24.185Z,100.00
2018-11-04T20:37:52.364Z,100.00
2018-11-04T20:40:25.968Z,100.00
2018-11-04T20:42:54.128Z,100.00
2018-11-04T20:45:22.291Z,100.00
2018-11-04T20:47:55.701Z,100.00
2018-11-04T20:50:29.224Z,100.00
2018-11-04T20:52:57.404Z,100.00
2018-11-04T20:55:29.717Z,100.00
2018-11-04T20:57:58.592Z,100.00
2018-11-04T21:00:26.800Z,100.00
2018-11-04T21:02:55.260Z,100.00
2018-11-04T21:05:23.441Z,100.00
2018-11-04T21:07:51.819Z,100.00
2018-11-04T21:10:19.975Z,100.00
2018-11-04T21:12:48.147Z,100.00
2018-11-04T21:15:16.313Z,100.00
2018-11-04T21:17:44.466Z,100.00
2018-11-04T21:20:12.641Z,100.00
2018-11-04T21:22:40.776Z,100.00
2018-11-04T21:25:09.004Z,100.00
2018-11-04T21:27:37.114Z,100.00
2018-11-04T21:30:07.921Z,100.00
2018-11-04T21:32:36.207Z,100.00
2018-11-04T21:35:04.462Z,100.00
2018-11-04T21:37:32.661Z,100.00
2018-11-04T21:40:00.822Z,100.00
2018-11-04T21:42:29.138Z,100.00
2018-11-04T21:44:57.177Z,100.00
2018-11-04T21:47:25.313Z,100.00
2018-11-04T21:49:53.458Z,100.00
2018-11-04T21:52:21.595Z,100.00
2018-11-04T21:54:49.729Z,100.00
2018-11-04T21:57:17.889Z,100.00
2018-11-04T21:59:46.009Z,100.00
2018-11-04T22:02:14.203Z,100.00
2018-11-04T22:04:42.347Z,100.00
2018-11-04T22:07:10.469Z,100.00
2018-11-04T22:09:38.660Z,100.00
2018-11-04T22:12:06.816Z,100.00
2018-11-04T22:14:34.930Z,100.00
2018-11-04T22:17:03.110Z,100.00
2018-11-04T22:19:31.249Z,100.00
2018-11-04T22:21:59.410Z,100.00
2018-11-04T22:24:27.590Z,100.00
2018-11-04T22:26:55.741Z,100.00
2018-11-04T22:29:23.867Z,100.00
2018-11-04T22:31:52.013Z,100.00
2018-11-04T22:34:20.156Z,100.00
2018-11-04T22:36:48.310Z,100.00
2018-11-04T22:39:16.529Z,100.00
2018-11-04T22:41:44.665Z,100.00
2018-11-04T22:44:12.870Z,100.00
2018-11-04T22:46:41.460Z,100.00
2018-11-04T22:49:09.849Z,100.00
2018-11-04T22:51:38.223Z,100.00
2018-11-04T22:54:06.369Z,100.00
2018-11-04T22:56:34.556Z,100.00
2018-11-04T22:59:02.673Z,100.00
2018-11-04T23:01:30.857Z,100.00
2018-11-04T23:03:59.004Z,100.00
2018-11-04T23:06:27.825Z,100.00
2018-11-04T23:08:55.999Z,100.00
2018-11-04T23:11:24.141Z,100.00
2018-11-04T23:13:52.284Z,100.00
2018-11-04T23:16:20.458Z,100.00
2018-11-04T23:18:48.722Z,100.00
2018-11-04T23:21:16.814Z,100.00
2018-11-04T23:23:44.948Z,100.00
2018-11-04T23:26:13.079Z,100.00
2018-11-04T23:28:41.235Z,100.00
2018-11-04T23:31:09.397Z,100.00
2018-11-04T23:33:37.598Z,100.00
2018-11-04T23:36:05.787Z,100.00
2018-11-04T23:38:33.947Z,100.00
2018-11-04T23:41:02.073Z,100.00
2018-11-04T23:43:30.225Z,100.00
2018-11-04T23:45:58.382Z,100.00
2018-11-04T23:48:26.568Z,100.00
2018-11-04T23:50:54.697Z,100.00
2018-11-04T23:53:22.841Z,100.00
2018-11-04T23:55:50.977Z,100.00
2018-11-04T23:58:19.166Z,100.00
